createdAt,value
2018-08-13T00:00:02.107Z,16.78
2018-08-13T00:02:34.115Z,16.78
2018-08-13T00:05:06.135Z,16.67
2018-08-13T00:07:38.151Z,16.66
2018-08-13T00:10:10.138Z,16.64
2018-08-13T00:12:42.159Z,16.57
2018-08-13T00:15:14.172Z,16.52
2018-08-13T00:17:46.499Z,16.55
2018-08-13T00:20:18.542Z,16.53
2018-08-13T00:22:50.538Z,16.60
2018-08-13T00:25:22.514Z,16.67
2018-08-13T00:27:54.497Z,16.76
2018-08-13T00:30:26.475Z,16.69
2018-08-13T00:32:58.498Z,16.58
2018-08-13T00:35:30.486Z,16.47
2018-08-13T00:38:02.511Z,16.27
2018-08-13T00:40:34.484Z,16.16
2018-08-13T00:43:06.721Z,16.34
2018-08-13T00:45:38.739Z,16.37
2018-08-13T00:48:10.774Z,16.28
2018-08-13T00:50:42.778Z,16.25
2018-08-13T00:53:14.802Z,16.26
2018-08-13T00:55:46.827Z,16.22
2018-08-13T00:58:18.834Z,16.04
2018-08-13T01:00:50.802Z,15.99
2018-08-13T01:03:22.790Z,16.06
2018-08-13T01:05:54.815Z,15.99
2018-08-13T01:08:26.799Z,15.89
2018-08-13T01:10:58.831Z,15.83
2018-08-13T01:13:30.856Z,15.83
2018-08-13T01:16:02.851Z,15.72
2018-08-13T01:18:34.862Z,15.82
2018-08-13T01:21:06.871Z,15.96
2018-08-13T01:23:38.878Z,15.94
2018-08-13T01:26:10.931Z,15.96
2018-08-13T01:28:42.966Z,15.87
2018-08-13T01:31:14.988Z,15.88
2018-08-13T01:33:46.998Z,15.94
2018-08-13T01:36:19.018Z,15.96
2018-08-13T01:38:51.028Z,15.94
2018-08-13T01:41:23.053Z,15.97
2018-08-13T01:43:55.058Z,15.98
2018-08-13T01:46:27.049Z,16.17
2018-08-13T01:48:59.134Z,16.15
2018-08-13T01:51:31.132Z,16.12
2018-08-13T01:54:03.134Z,16.09
2018-08-13T01:56:35.131Z,16.20
2018-08-13T01:59:07.175Z,16.32
2018-08-13T02:01:39.179Z,16.35
2018-08-13T02:04:11.255Z,16.37
2018-08-13T02:06:43.271Z,16.45
2018-08-13T02:09:15.313Z,16.49
2018-08-13T02:11:47.374Z,16.42
2018-08-13T02:14:19.403Z,16.41
2018-08-13T02:16:51.419Z,16.45
2018-08-13T02:19:23.442Z,16.49
2018-08-13T02:21:55.787Z,16.59
2018-08-13T02:24:28.187Z,16.57
2018-08-13T02:27:00.202Z,16.59
2018-08-13T02:29:32.263Z,16.53
2018-08-13T02:32:04.274Z,16.61
2018-08-13T02:34:36.287Z,16.51
2018-08-13T02:37:08.286Z,16.49
2018-08-13T02:39:40.332Z,16.48
2018-08-13T02:42:12.334Z,16.47
2018-08-13T02:44:44.348Z,16.37
2018-08-13T02:47:16.343Z,16.37
2018-08-13T02:49:48.378Z,16.33
2018-08-13T02:52:20.439Z,16.24
2018-08-13T02:54:52.468Z,16.20
2018-08-13T02:57:24.478Z,16.20
2018-08-13T02:59:56.523Z,16.13
2018-08-13T03:02:28.525Z,16.19
2018-08-13T03:05:00.581Z,16.17
2018-08-13T03:07:32.604Z,16.10
2018-08-13T03:10:06.667Z,16.11
2018-08-13T03:12:38.689Z,16.00
2018-08-13T03:15:13.269Z,15.98
2018-08-13T03:17:45.256Z,15.96
2018-08-13T03:20:17.284Z,16.01
2018-08-13T03:22:49.262Z,15.96
2018-08-13T03:25:21.954Z,15.95
2018-08-13T03:27:53.960Z,15.97
2018-08-13T03:30:25.972Z,15.90
2018-08-13T03:32:57.988Z,15.98
2018-08-13T03:35:30.044Z,15.97
2018-08-13T03:38:02.094Z,15.92
2018-08-13T03:40:34.147Z,15.94
2018-08-13T03:43:06.171Z,15.97
2018-08-13T03:45:38.172Z,15.89
2018-08-13T03:48:10.200Z,15.84
2018-08-13T03:50:42.249Z,15.85
2018-08-13T03:53:14.242Z,15.79
2018-08-13T03:55:46.346Z,15.57
2018-08-13T03:58:18.338Z,15.62
2018-08-13T04:00:50.379Z,15.68
2018-08-13T04:03:22.375Z,15.62
2018-08-13T04:05:54.426Z,15.62
2018-08-13T04:08:26.440Z,15.66
2018-08-13T04:10:58.446Z,15.72
2018-08-13T04:13:30.467Z,15.73
2018-08-13T04:16:02.507Z,15.68
2018-08-13T04:18:34.575Z,15.73
2018-08-13T04:21:06.616Z,15.73
2018-08-13T04:23:38.630Z,15.76
2018-08-13T04:26:10.655Z,15.78
2018-08-13T04:28:42.726Z,15.89
2018-08-13T04:31:14.782Z,15.98
2018-08-13T04:33:46.782Z,15.99
2018-08-13T04:36:18.822Z,16.05
2018-08-13T04:38:50.896Z,16.06
2018-08-13T04:41:22.958Z,16.11
2018-08-13T04:43:54.950Z,16.10
2018-08-13T04:46:26.992Z,16.15
2018-08-13T04:48:58.986Z,16.22
2018-08-13T04:51:31.030Z,16.30
2018-08-13T04:54:03.200Z,16.33
2018-08-13T04:56:35.266Z,16.38
2018-08-13T04:59:07.234Z,16.44
2018-08-13T05:01:39.271Z,16.43
2018-08-13T05:04:11.270Z,16.47
2018-08-13T05:06:43.292Z,16.49
2018-08-13T05:09:15.295Z,16.59
2018-08-13T05:11:47.335Z,16.61
2018-08-13T05:14:19.367Z,16.72
2018-08-13T05:16:51.400Z,17.18
2018-08-13T05:19:23.423Z,17.32
2018-08-13T05:21:55.502Z,17.43
2018-08-13T05:24:27.534Z,17.55
2018-08-13T05:26:59.567Z,17.62
2018-08-13T05:29:31.563Z,18.05
2018-08-13T05:32:03.660Z,18.93
2018-08-13T05:34:35.654Z,20.54
2018-08-13T05:37:07.672Z,21.49
2018-08-13T05:39:39.707Z,22.35
2018-08-13T05:42:11.775Z,23.11
2018-08-13T05:44:43.780Z,24.38
2018-08-13T05:47:15.799Z,25.28
2018-08-13T05:49:47.887Z,26.13
2018-08-13T05:52:19.866Z,25.19
2018-08-13T05:54:51.901Z,25.45
2018-08-13T05:57:23.907Z,26.33
2018-08-13T05:59:55.904Z,26.58
2018-08-13T06:02:27.931Z,27.39
2018-08-13T06:04:59.981Z,27.21
2018-08-13T06:07:32.023Z,27.68
2018-08-13T06:10:05.447Z,28.41
2018-08-13T06:12:37.626Z,28.88
2018-08-13T06:15:11.421Z,29.20
2018-08-13T06:17:43.421Z,28.92
2018-08-13T06:20:15.469Z,29.70
2018-08-13T06:22:47.482Z,28.38
2018-08-13T06:25:19.515Z,29.67
2018-08-13T06:27:51.560Z,29.02
2018-08-13T06:30:23.584Z,28.58
2018-08-13T06:32:55.598Z,29.40
2018-08-13T06:35:27.695Z,29.10
2018-08-13T06:37:59.695Z,30.22
2018-08-13T06:40:31.784Z,30.35
2018-08-13T06:43:03.862Z,30.26
2018-08-13T06:45:35.932Z,31.30
2018-08-13T06:48:07.954Z,30.94
2018-08-13T06:50:39.941Z,31.75
2018-08-13T06:53:18.749Z,32.46
2018-08-13T06:55:50.747Z,31.42
2018-08-13T06:58:22.747Z,30.97
2018-08-13T07:00:54.827Z,31.06
2018-08-13T07:03:26.762Z,31.32
2018-08-13T07:05:58.808Z,30.08
2018-08-13T07:08:30.784Z,31.44
2018-08-13T07:11:02.795Z,31.06
2018-08-13T07:13:34.846Z,31.18
2018-08-13T07:16:06.848Z,32.07
2018-08-13T07:18:38.986Z,31.59
2018-08-13T07:21:10.979Z,31.15
2018-08-13T07:23:44.345Z,31.14
2018-08-13T07:26:16.387Z,32.56
2018-08-13T07:28:48.579Z,31.32
2018-08-13T07:31:20.563Z,32.03
2018-08-13T07:33:52.603Z,33.37
2018-08-13T07:36:24.590Z,33.32
2018-08-13T07:38:56.676Z,32.87
2018-08-13T07:41:28.631Z,31.57
2018-08-13T07:44:00.619Z,31.10
2018-08-13T07:46:32.611Z,30.96
2018-08-13T07:49:04.666Z,31.13
2018-08-13T07:51:36.672Z,31.28
2018-08-13T07:54:08.727Z,32.23
2018-08-13T07:56:40.766Z,32.68
2018-08-13T07:59:12.763Z,33.52
2018-08-13T08:01:44.763Z,34.15
2018-08-13T08:04:16.795Z,33.26
2018-08-13T08:06:48.806Z,32.11
2018-08-13T08:09:20.799Z,31.94
2018-08-13T08:11:52.870Z,32.20
2018-08-13T08:14:24.939Z,32.27
2018-08-13T08:16:56.991Z,33.10
2018-08-13T08:19:29.007Z,32.51
2018-08-13T08:22:01.132Z,33.31
2018-08-13T08:24:33.194Z,32.41
2018-08-13T08:27:05.593Z,33.07
2018-08-13T08:29:37.640Z,32.67
2018-08-13T08:32:09.660Z,34.16
2018-08-13T08:34:41.738Z,33.61
2018-08-13T08:37:13.794Z,34.80
2018-08-13T08:39:45.831Z,35.39
2018-08-13T08:42:17.879Z,34.74
2018-08-13T08:44:49.866Z,34.24
2018-08-13T08:47:21.867Z,34.69
2018-08-13T08:49:53.902Z,36.02
2018-08-13T08:52:25.935Z,35.73
2018-08-13T08:54:57.991Z,35.96
2018-08-13T08:57:30.024Z,34.61
2018-08-13T09:00:02.086Z,35.55
2018-08-13T09:02:34.085Z,36.00
2018-08-13T09:05:07.048Z,36.01
2018-08-13T09:07:39.832Z,35.54
2018-08-13T09:10:11.965Z,34.95
2018-08-13T09:12:44.039Z,35.12
2018-08-13T09:15:17.395Z,35.28
2018-08-13T09:18:01.105Z,35.65
2018-08-13T09:20:44.630Z,35.54
2018-08-13T09:23:27.978Z,35.83
2018-08-13T09:26:11.448Z,36.14
2018-08-13T09:28:54.845Z,36.16
2018-08-13T09:31:38.488Z,35.75
2018-08-13T09:34:20.906Z,36.02
2018-08-13T09:36:52.951Z,36.65
2018-08-13T09:39:24.966Z,36.49
2018-08-13T09:41:57.030Z,36.52
2018-08-13T09:44:29.063Z,36.53
2018-08-13T09:47:01.619Z,36.64
2018-08-13T09:49:33.686Z,36.52
2018-08-13T09:52:06.052Z,37.05
2018-08-13T09:54:38.074Z,36.91
2018-08-13T09:57:10.085Z,37.19
2018-08-13T09:59:42.175Z,37.18
2018-08-13T10:02:14.230Z,36.27
2018-08-13T10:04:46.474Z,36.19
2018-08-13T10:07:18.478Z,36.56
2018-08-13T10:09:50.495Z,36.44
2018-08-13T10:12:22.504Z,35.69
2018-08-13T10:14:54.532Z,36.52
2018-08-13T10:17:26.595Z,35.60
2018-08-13T10:19:58.608Z,35.64
2018-08-13T10:22:30.633Z,34.47
2018-08-13T10:25:03.200Z,35.03
2018-08-13T10:27:35.232Z,36.23
2018-08-13T10:30:08.560Z,36.48
2018-08-13T10:32:40.795Z,36.71
2018-08-13T10:35:12.846Z,37.03
2018-08-13T10:37:44.874Z,37.00
2018-08-13T10:40:18.034Z,37.33
2018-08-13T10:42:50.069Z,36.31
2018-08-13T10:45:22.101Z,36.04
2018-08-13T10:47:54.124Z,36.15
2018-08-13T10:50:26.221Z,36.32
2018-08-13T10:52:58.253Z,36.40
2018-08-13T10:55:30.316Z,36.90
2018-08-13T10:58:02.380Z,36.07
2018-08-13T11:00:34.395Z,35.17
2018-08-13T11:03:06.437Z,35.31
2018-08-13T11:05:38.455Z,36.47
2018-08-13T11:08:10.487Z,36.73
2018-08-13T11:10:42.540Z,36.99
2018-08-13T11:13:14.641Z,37.19
2018-08-13T11:15:46.630Z,36.57
2018-08-13T11:18:18.688Z,36.43
2018-08-13T11:20:50.735Z,36.21
2018-08-13T11:23:22.791Z,36.15
2018-08-13T11:25:54.811Z,36.23
2018-08-13T11:28:26.869Z,37.02
2018-08-13T11:30:58.914Z,36.81
2018-08-13T11:33:30.948Z,36.90
2018-08-13T11:36:03.003Z,37.36
2018-08-13T11:38:35.045Z,37.49
2018-08-13T11:41:07.066Z,37.00
2018-08-13T11:43:39.151Z,36.73
2018-08-13T11:46:11.235Z,37.27
2018-08-13T11:48:43.289Z,37.15
2018-08-13T11:51:15.322Z,37.46
2018-08-13T11:53:48.196Z,36.92
2018-08-13T11:56:20.259Z,37.11
2018-08-13T11:58:52.262Z,37.50
2018-08-13T12:01:24.284Z,38.55
2018-08-13T12:03:56.298Z,38.02
2018-08-13T12:06:28.299Z,37.71
2018-08-13T12:09:00.340Z,38.22
2018-08-13T12:11:32.358Z,38.14
2018-08-13T12:14:04.551Z,37.74
2018-08-13T12:16:36.833Z,36.94
2018-08-13T12:19:08.886Z,37.34
2018-08-13T12:21:40.908Z,37.30
2018-08-13T12:24:12.882Z,37.13
2018-08-13T12:26:44.976Z,36.44
2018-08-13T12:29:16.971Z,36.91
2018-08-13T12:31:48.999Z,37.11
2018-08-13T12:34:21.026Z,37.23
2018-08-13T12:36:57.639Z,35.74
2018-08-13T12:39:29.633Z,36.24
2018-08-13T12:42:01.679Z,36.52
2018-08-13T12:44:40.590Z,36.46
2018-08-13T12:47:12.582Z,36.25
2018-08-13T12:49:44.622Z,36.87
2018-08-13T12:52:16.615Z,37.19
2018-08-13T12:54:48.671Z,36.47
2018-08-13T12:57:20.707Z,34.98
2018-08-13T12:59:52.751Z,34.15
2018-08-13T13:02:24.751Z,35.83
2018-08-13T13:04:56.814Z,37.32
2018-08-13T13:07:28.905Z,37.77
2018-08-13T13:10:00.924Z,38.14
2018-08-13T13:12:32.911Z,38.72
2018-08-13T13:15:06.784Z,37.16
2018-08-13T13:17:39.199Z,36.18
2018-08-13T13:20:14.126Z,34.47
2018-08-13T13:22:46.599Z,36.25
2018-08-13T13:25:19.087Z,36.35
2018-08-13T13:27:51.131Z,36.26
2018-08-13T13:30:23.176Z,36.29
2018-08-13T13:32:55.267Z,35.48
2018-08-13T13:35:27.342Z,34.12
2018-08-13T13:37:59.378Z,33.35
2018-08-13T13:40:31.632Z,33.27
2018-08-13T13:43:03.543Z,33.39
2018-08-13T13:45:35.614Z,33.92
2018-08-13T13:48:07.634Z,33.87
2018-08-13T13:50:39.729Z,34.80
2018-08-13T13:53:11.768Z,34.52
2018-08-13T13:55:43.810Z,33.74
2018-08-13T13:58:15.810Z,32.45
2018-08-13T14:00:47.883Z,32.08
2018-08-13T14:03:19.937Z,31.39
2018-08-13T14:05:52.050Z,31.17
2018-08-13T14:08:24.220Z,30.79
2018-08-13T14:10:56.307Z,30.60
2018-08-13T14:13:28.331Z,30.54
2018-08-13T14:16:00.354Z,30.73
2018-08-13T14:18:32.409Z,30.52
2018-08-13T14:21:04.542Z,30.51
2018-08-13T14:23:36.555Z,30.75
2018-08-13T14:26:08.682Z,30.47
2018-08-13T14:28:40.767Z,30.52
2018-08-13T14:31:12.802Z,30.80
2018-08-13T14:33:44.802Z,30.80
2018-08-13T14:36:16.861Z,30.46
2018-08-13T14:38:48.875Z,30.15
2018-08-13T14:41:20.918Z,30.38
2018-08-13T14:43:52.930Z,30.18
2018-08-13T14:46:24.904Z,29.95
2018-08-13T14:48:56.882Z,29.86
2018-08-13T14:51:28.907Z,29.56
2018-08-13T14:54:02.192Z,29.67
2018-08-13T14:56:34.229Z,29.81
2018-08-13T14:59:06.527Z,29.77
2018-08-13T15:01:38.685Z,29.78
2018-08-13T15:04:10.718Z,29.91
2018-08-13T15:06:42.764Z,29.66
2018-08-13T15:09:14.753Z,29.96
2018-08-13T15:11:46.806Z,29.28
2018-08-13T15:14:18.814Z,29.50
2018-08-13T15:16:50.859Z,29.14
2018-08-13T15:19:22.949Z,29.21
2018-08-13T15:21:54.992Z,28.85
2018-08-13T15:24:27.016Z,28.67
2018-08-13T15:26:59.071Z,28.52
2018-08-13T15:29:31.316Z,28.55
2018-08-13T15:32:03.371Z,28.61
2018-08-13T15:34:35.386Z,28.38
2018-08-13T15:37:07.482Z,28.41
2018-08-13T15:39:39.520Z,28.21
2018-08-13T15:42:11.560Z,27.79
2018-08-13T15:44:43.626Z,27.63
2018-08-13T15:47:15.672Z,27.60
2018-08-13T15:49:47.757Z,27.46
2018-08-13T15:52:19.866Z,27.04
2018-08-13T15:54:52.296Z,26.87
2018-08-13T15:57:24.382Z,26.69
2018-08-13T15:59:56.411Z,26.53
2018-08-13T16:02:32.946Z,26.23
2018-08-13T16:05:07.372Z,26.16
2018-08-13T16:07:39.479Z,25.71
2018-08-13T16:10:12.992Z,25.42
2018-08-13T16:12:45.388Z,24.45
2018-08-13T16:15:17.383Z,23.44
2018-08-13T16:17:49.432Z,22.79
2018-08-13T16:20:21.730Z,22.40
2018-08-13T16:22:53.775Z,21.76
2018-08-13T16:25:25.888Z,21.49
2018-08-13T16:27:58.060Z,21.19
2018-08-13T16:30:30.987Z,20.96
2018-08-13T16:33:03.347Z,20.64
2018-08-13T16:35:35.455Z,20.38
2018-08-13T16:38:07.606Z,20.26
2018-08-13T16:40:39.776Z,20.27
2018-08-13T16:43:13.922Z,20.12
2018-08-13T16:45:46.027Z,19.97
2018-08-13T16:48:18.149Z,19.87
2018-08-13T16:50:50.225Z,19.75
2018-08-13T16:53:22.285Z,19.86
2018-08-13T16:55:54.342Z,19.62
2018-08-13T16:58:26.399Z,19.49
2018-08-13T17:00:58.450Z,19.40
2018-08-13T17:03:30.535Z,19.41
2018-08-13T17:06:02.607Z,19.26
2018-08-13T17:08:34.761Z,19.25
2018-08-13T17:11:06.955Z,19.24
2018-08-13T17:13:39.144Z,19.19
2018-08-13T17:16:11.304Z,19.19
2018-08-13T17:18:43.320Z,19.09
2018-08-13T17:21:15.447Z,19.02
2018-08-13T17:23:47.429Z,19.00
2018-08-13T17:26:19.535Z,19.03
2018-08-13T17:28:51.712Z,19.01
2018-08-13T17:31:23.735Z,18.96
2018-08-13T17:33:55.895Z,18.96
2018-08-13T17:36:27.910Z,18.90
2018-08-13T17:38:59.952Z,18.93
2018-08-13T17:41:32.254Z,18.91
2018-08-13T17:44:04.690Z,18.85
2018-08-13T17:46:36.859Z,18.83
2018-08-13T17:49:09.059Z,18.85
2018-08-13T17:51:41.195Z,18.83
2018-08-13T17:54:13.302Z,18.86
2018-08-13T17:56:45.434Z,18.92
2018-08-13T17:59:17.424Z,18.89
2018-08-13T18:01:49.432Z,18.79
2018-08-13T18:04:21.431Z,18.86
2018-08-13T18:06:53.557Z,18.89
2018-08-13T18:09:26.723Z,18.91
2018-08-13T18:11:58.874Z,18.93
2018-08-13T18:14:30.927Z,18.89
2018-08-13T18:17:03.047Z,18.82
2018-08-13T18:19:35.066Z,18.83
2018-08-13T18:22:07.089Z,18.85
2018-08-13T18:24:39.110Z,18.88
2018-08-13T18:27:11.088Z,18.85
2018-08-13T18:32:21.956Z,18.80
2018-08-13T18:34:54.071Z,18.85
2018-08-13T18:37:26.111Z,18.86
2018-08-13T18:39:58.198Z,18.70
2018-08-13T18:42:30.202Z,18.74
2018-08-13T18:45:02.351Z,18.69
2018-08-13T18:47:34.441Z,18.74
2018-08-13T18:50:10.323Z,18.74
2018-08-13T18:52:42.952Z,18.77
2018-08-13T18:55:16.348Z,18.76
2018-08-13T18:57:48.708Z,18.72
2018-08-13T19:00:29.460Z,18.70
2018-08-13T19:03:01.695Z,18.64
2018-08-13T19:05:34.195Z,18.64
2018-08-13T19:08:06.244Z,18.66
2018-08-13T19:10:38.285Z,18.61
2018-08-13T19:13:10.286Z,18.60
2018-08-13T19:15:42.295Z,18.58
2018-08-13T19:18:14.345Z,18.63
2018-08-13T19:20:46.379Z,18.63
2018-08-13T19:23:18.458Z,18.64
2018-08-13T19:25:51.542Z,18.55
2018-08-13T19:28:23.611Z,18.53
2018-08-13T19:30:55.608Z,18.49
2018-08-13T19:33:27.687Z,18.47
2018-08-13T19:35:59.601Z,18.55
2018-08-13T19:38:31.629Z,18.58
2018-08-13T19:41:03.649Z,18.54
2018-08-13T19:43:35.674Z,18.61
2018-08-13T19:46:07.740Z,18.60
2018-08-13T19:48:39.711Z,18.56
2018-08-13T19:51:11.734Z,18.57
2018-08-13T19:53:43.737Z,18.55
2018-08-13T19:56:15.720Z,18.60
2018-08-13T19:58:47.751Z,18.63
2018-08-13T20:01:19.751Z,18.62
2018-08-13T20:03:51.767Z,18.60
2018-08-13T20:06:23.792Z,18.61
2018-08-13T20:08:55.833Z,18.63
2018-08-13T20:11:27.822Z,18.61
2018-08-13T20:13:59.807Z,18.54
2018-08-13T20:16:31.881Z,18.50
2018-08-13T20:19:03.895Z,18.48
2018-08-13T20:21:35.897Z,18.51
2018-08-13T20:24:07.886Z,18.49
2018-08-13T20:26:39.944Z,18.47
2018-08-13T20:29:12.259Z,18.47
2018-08-13T20:31:44.294Z,18.41
2018-08-13T20:34:16.379Z,18.44
2018-08-13T20:36:48.482Z,18.43
2018-08-13T20:39:20.491Z,18.43
2018-08-13T20:41:52.486Z,18.41
2018-08-13T20:44:24.572Z,18.28
2018-08-13T20:46:56.599Z,18.22
2018-08-13T20:49:28.638Z,18.22
2018-08-13T20:52:00.639Z,18.22
2018-08-13T20:54:33.187Z,18.23
2018-08-13T20:57:05.231Z,18.21
2018-08-13T20:59:37.249Z,18.27
2018-08-13T21:02:09.248Z,18.28
2018-08-13T21:04:41.253Z,18.42
2018-08-13T21:07:15.347Z,18.35
2018-08-13T21:09:47.323Z,18.38
2018-08-13T21:12:19.321Z,18.35
2018-08-13T21:14:51.344Z,18.32
2018-08-13T21:17:23.387Z,18.24
2018-08-13T21:19:55.422Z,18.22
2018-08-13T21:22:27.460Z,18.25
2018-08-13T21:27:57.776Z,18.17
2018-08-13T21:30:29.768Z,18.12
2018-08-13T21:33:01.802Z,18.12
2018-08-13T21:35:33.770Z,18.14
2018-08-13T21:38:05.788Z,18.14
2018-08-13T21:40:37.772Z,18.15
2018-08-13T21:43:09.815Z,18.10
2018-08-13T21:45:41.823Z,18.09
2018-08-13T21:48:13.851Z,18.11
2018-08-13T21:50:45.851Z,18.10
2018-08-13T21:53:17.864Z,18.08
2018-08-13T21:55:49.852Z,18.08
2018-08-13T21:58:21.875Z,17.99
2018-08-13T22:00:59.629Z,18.02
2018-08-13T22:03:31.689Z,17.98
2018-08-13T22:06:03.710Z,17.95
2018-08-13T22:08:35.719Z,17.94
2018-08-13T22:11:08.543Z,17.89
2018-08-13T22:13:40.542Z,17.84
2018-08-13T22:16:12.499Z,17.86
2018-08-13T22:18:44.491Z,17.86
2018-08-13T22:21:16.511Z,17.87
2018-08-13T22:24:00.244Z,17.84
2018-08-13T22:26:32.303Z,17.83
2018-08-13T22:29:04.332Z,17.84
2018-08-13T22:31:36.481Z,17.78
2018-08-13T22:34:08.898Z,17.75
2018-08-13T22:36:40.931Z,17.72
2018-08-13T22:39:12.966Z,17.64
2018-08-13T22:41:45.018Z,17.64
2018-08-13T22:44:17.043Z,17.76
2018-08-13T22:46:49.099Z,17.84
2018-08-13T22:49:21.306Z,17.87
2018-08-13T22:51:53.355Z,17.87
2018-08-13T22:54:25.438Z,17.90
2018-08-13T22:56:57.454Z,17.92
2018-08-13T22:59:29.505Z,17.91
2018-08-13T23:02:01.583Z,17.84
2018-08-13T23:04:33.606Z,17.79
2018-08-13T23:07:05.914Z,17.77
2018-08-13T23:09:37.944Z,17.68
2018-08-13T23:12:10.307Z,17.67
2018-08-13T23:14:42.433Z,17.67
2018-08-13T23:17:14.468Z,17.66
2018-08-13T23:19:46.511Z,17.66
2018-08-13T23:23:02.508Z,17.64
2018-08-13T23:25:35.586Z,17.60
2018-08-13T23:28:09.575Z,17.57
2018-08-13T23:30:41.582Z,17.56
2018-08-13T23:33:13.603Z,17.49
2018-08-13T23:35:45.623Z,17.47
2018-08-13T23:38:17.644Z,17.50
2018-08-13T23:40:49.648Z,17.55
2018-08-13T23:43:21.660Z,17.57
2018-08-13T23:45:53.664Z,17.58
2018-08-13T23:48:25.688Z,17.57
2018-08-13T23:50:57.698Z,17.64
2018-08-13T23:53:29.706Z,17.63
2018-08-13T23:56:01.745Z,17.66
2018-08-13T23:58:33.781Z,17.72
